Time;durP1;ratioP1;P1;durP2;ratioP2;P2;SDS_P1;SDS_P2;PMS_P1;PMS_P2;Temp;Humidity;BMP_temperature;BMP_pressure;BME280_temperature;BME280_humidity;BME280_pressure;Samples;Min_cycle;Max_cycle;Signal;HPM_P1;HPM_P2
2020/12/22 00:01:42;;;;;;;16.08;11.30;;;;;;;4.70;81.21;101849.63;4965827;28;20472;-76
2020/12/22 00:04:07;;;;;;;27.80;17.50;;;;;;;4.68;81.22;101848.59;4961229;28;20055;-75
2020/12/22 00:06:33;;;;;;;33.17;16.88;;;;;;;4.77;81.26;101852.69;4965065;28;20460;-77
2020/12/22 00:08:58;;;;;;;25.17;14.50;;;;;;;4.88;81.33;101861.25;4969747;28;20070;-76
2020/12/22 00:11:24;;;;;;;23.50;12.45;;;;;;;4.83;81.17;101848.97;4963500;28;20070;-75
2020/12/22 00:13:49;;;;;;;23.60;16.45;;;;;;;4.90;81.17;101854.59;4967243;28;20089;-75
2020/12/22 00:16:15;;;;;;;19.25;13.35;;;;;;;4.80;81.70;101855.50;4970338;28;20038;-73
2020/12/22 00:18:40;;;;;;;21.45;14.18;;;;;;;4.75;82.17;101859.31;4988947;28;20072;-71
2020/12/22 00:21:07;;;;;;;39.78;20.60;;;;;;;4.67;82.60;101853.59;5018977;28;20034;-73
2020/12/22 00:23:32;;;;;;;20.00;13.02;;;;;;;4.59;83.56;101865.75;5011225;28;20047;-72
2020/12/22 00:25:58;;;;;;;31.17;15.48;;;;;;;4.57;84.04;101854.47;5018232;28;20483;-72
2020/12/22 00:28:24;;;;;;;32.30;19.42;;;;;;;4.56;84.22;101856.91;5016336;28;20025;-72
2020/12/22 00:30:49;;;;;;;22.20;15.38;;;;;;;4.51;84.35;101862.56;5010522;28;20057;-72
2020/12/22 00:33:15;;;;;;;20.40;13.45;;;;;;;4.44;84.88;101857.69;5009486;28;20518;-72
2020/12/22 00:35:41;;;;;;;27.33;17.42;;;;;;;4.44;84.71;101851.69;5018959;28;20417;-72
2020/12/22 00:38:07;;;;;;;22.67;16.25;;;;;;;4.41;85.11;101853.97;5018367;28;20050;-72
2020/12/22 00:40:33;;;;;;;22.33;14.13;;;;;;;4.46;84.99;101857.81;5007762;28;20042;-70
2020/12/22 00:43:02;;;;;;;20.83;13.50;;;;;;;4.45;85.08;101848.34;5011680;28;20030;-72
2020/12/22 00:45:29;;;;;;;;;;;;;;;4.59;85.16;101852.06;5012095;28;20026;-71
2020/12/22 00:47:54;;;;;;;16.83;11.63;;;;;;;4.65;84.56;101850.91;5011563;28;19913;-74
2020/12/22 00:50:19;;;;;;;19.17;12.98;;;;;;;4.62;84.48;101845.56;5010427;28;20026;-75
2020/12/22 00:52:45;;;;;;;19.83;13.00;;;;;;;4.58;84.69;101842.59;5011702;28;20063;-75
2020/12/22 00:55:10;;;;;;;23.35;16.30;;;;;;;4.60;84.74;101849.63;5011545;28;20080;-74
2020/12/22 00:57:36;;;;;;;40.10;36.05;;;;;;;4.60;84.80;101853.84;5011454;28;20033;-75
2020/12/22 01:00:03;;;;;;;25.40;14.60;;;;;;;4.50;84.74;101853.09;5011731;28;20030;-72
2020/12/22 01:02:28;;;;;;;29.05;19.67;;;;;;;4.44;85.54;101846.56;5011042;28;20105;-76
2020/12/22 01:04:54;;;;;;;23.40;13.38;;;;;;;4.43;85.69;101855.00;5011574;28;20052;-74
2020/12/22 01:07:19;;;;;;;18.13;13.18;;;;;;;4.41;85.57;101853.97;5011533;28;20046;-74
2020/12/22 01:09:45;;;;;;;22.35;14.05;;;;;;;4.33;86.16;101845.66;5011083;28;20034;-73
2020/12/22 01:12:11;;;;;;;19.65;13.80;;;;;;;4.42;85.70;101858.31;5010754;28;20548;-73
2020/12/22 01:14:36;;;;;;;21.10;13.98;;;;;;;4.52;85.47;101855.75;5011509;28;20157;-74
2020/12/22 01:17:03;;;;;;;19.65;13.75;;;;;;;4.60;84.76;101848.72;4988894;28;20038;-73
2020/12/22 01:19:28;;;;;;;20.00;13.52;;;;;;;4.58;84.99;101840.94;4989484;28;20050;-74
2020/12/22 01:21:54;;;;;;;24.42;14.25;;;;;;;4.61;84.76;101848.88;4989330;28;20061;-74
2020/12/22 01:24:20;;;;;;;29.92;16.73;;;;;;;4.56;85.04;101847.59;4973016;28;20042;-72
2020/12/22 01:26:47;;;;;;;35.65;17.05;;;;;;;4.51;84.97;101843.72;5005308;28;20170;-74
2020/12/22 01:29:13;;;;;;;22.85;14.35;;;;;;;4.53;85.29;101844.78;4989379;28;20060;-73
2020/12/22 01:31:38;;;;;;;20.38;14.35;;;;;;;4.53;85.19;101842.22;4989075;28;20512;-73
2020/12/22 01:34:04;;;;;;;22.75;13.07;;;;;;;4.34;85.15;101814.22;4989249;28;20551;-73
2020/12/22 01:36:31;;;;;;;19.63;13.02;;;;;;;4.56;85.32;101842.47;4989410;28;20508;-74
2020/12/22 01:38:56;;;;;;;20.90;13.32;;;;;;;4.61;85.15;101830.97;4989141;28;20061;-74
2020/12/22 01:41:22;;;;;;;21.10;12.80;;;;;;;4.62;84.87;101832.75;4989970;28;20056;-74
2020/12/22 01:44:07;;;;;;;16.67;12.02;;;;;;;4.67;84.80;101834.03;4992611;28;20485;-73
2020/12/22 01:46:41;;;;;;;18.50;11.57;;;;;;;4.37;85.87;101825.59;4986568;28;20045;-73
2020/12/22 01:49:19;;;;;;;18.63;12.32;;;;;;;4.52;86.22;101830.19;5013660;28;20608;-74
2020/12/22 01:51:46;;;;;;;18.67;11.85;;;;;;;4.53;85.83;101824.31;5040353;28;20045;-74
2020/12/22 01:54:15;;;;;;;20.77;12.93;;;;;;;4.63;85.46;101824.28;5054159;28;20388;-74
2020/12/22 01:56:41;;;;;;;17.00;11.93;;;;;;;4.44;85.38;101788.63;5031848;28;20037;-74
2020/12/22 01:59:07;;;;;;;21.42;13.43;;;;;;;4.60;85.24;101806.16;5032005;28;20164;-77
2020/12/22 02:01:34;;;;;;;19.25;12.52;;;;;;;4.72;85.10;101828.38;5031742;28;20128;-75
2020/12/22 02:04:00;;;;;;;23.23;12.98;;;;;;;4.81;85.02;101829.13;5031795;28;20033;-74
2020/12/22 02:06:30;;;;;;;19.63;11.98;;;;;;;4.85;85.01;101831.19;5031536;28;20045;-74
2020/12/22 02:08:56;;;;;;;20.73;13.20;;;;;;;4.93;84.53;101825.03;5031476;28;20083;-74
2020/12/22 02:11:29;;;;;;;18.33;12.65;;;;;;;5.01;83.94;101823.09;5031617;28;20054;-74
2020/12/22 02:13:56;;;;;;;21.58;12.82;;;;;;;5.09;83.26;101834.84;5031636;28;20726;-74
2020/12/22 02:16:22;;;;;;;31.38;15.38;;;;;;;4.99;83.94;101830.63;5031679;28;20045;-73
2020/12/22 02:18:50;;;;;;;43.67;23.27;;;;;;;4.78;84.51;101821.22;5015057;28;20037;-71
2020/12/22 02:21:16;;;;;;;42.53;20.15;;;;;;;4.65;85.09;101833.00;5031611;28;20594;-75
2020/12/22 02:23:42;;;;;;;35.78;18.25;;;;;;;4.51;85.95;101833.50;5031247;28;20124;-73
2020/12/22 02:26:08;;;;;;;30.85;18.42;;;;;;;4.45;86.64;101840.66;5031627;28;20072;-73
2020/12/22 02:28:34;;;;;;;27.88;13.80;;;;;;;4.47;86.80;101834.91;5046223;28;20068;-73
2020/12/22 02:31:01;;;;;;;25.83;14.32;;;;;;;4.49;86.95;101829.94;5051234;28;20047;-74
2020/12/22 02:33:27;;;;;;;17.15;10.60;;;;;;;4.49;86.59;101825.72;5053859;28;20029;-74
2020/12/22 02:35:53;;;;;;;18.02;10.43;;;;;;;4.50;86.52;101837.75;5053630;28;20110;-73
2020/12/22 02:38:20;;;;;;;19.50;11.40;;;;;;;4.48;86.43;101834.16;5052081;28;20044;-73
2020/12/22 02:40:45;;;;;;;16.55;11.30;;;;;;;4.46;86.45;101834.78;5053574;28;20051;-73
2020/12/22 02:43:12;;;;;;;18.08;11.18;;;;;;;4.45;86.52;101826.22;5035572;28;20472;-73
2020/12/22 02:45:39;;;;;;;27.77;12.38;;;;;;;4.52;86.14;101825.97;5053426;28;20044;-73
2020/12/22 02:48:05;;;;;;;18.60;10.90;;;;;;;4.45;86.68;101841.56;5053242;28;20033;-73
2020/12/22 02:50:31;;;;;;;16.98;10.35;;;;;;;4.44;86.74;101836.34;5053360;28;20037;-75
2020/12/22 02:52:57;;;;;;;23.05;16.30;;;;;;;4.44;86.48;101831.22;5052684;28;20475;-73
2020/12/22 02:55:22;;;;;;;21.10;10.77;;;;;;;4.47;86.71;101827.22;5052972;28;20112;-73
2020/12/22 02:57:47;;;;;;;18.30;12.02;;;;;;;4.47;86.08;101814.44;5053016;28;20029;-74
2020/12/22 03:00:13;;;;;;;15.05;10.65;;;;;;;4.45;86.30;101818.56;5042347;28;20087;-73
2020/12/22 03:02:38;;;;;;;15.88;9.60;;;;;;;4.54;86.28;101826.09;5033526;28;20029;-73
2020/12/22 03:05:04;;;;;;;15.13;9.57;;;;;;;4.35;85.89;101785.34;5015657;28;20021;-74
2020/12/22 03:07:29;;;;;;;16.67;10.35;;;;;;;4.61;85.94;101823.28;5033172;28;20036;-72
2020/12/22 03:09:55;;;;;;;15.77;10.23;;;;;;;4.62;85.49;101819.06;5032966;28;20025;-73
2020/12/22 03:12:20;;;;;;;16.85;10.80;;;;;;;4.64;85.50;101817.53;5033391;28;20026;-74
2020/12/22 03:14:46;;;;;;;19.33;11.27;;;;;;;4.63;85.36;101814.06;5015423;28;20022;-74
2020/12/22 03:17:11;;;;;;;22.15;12.05;;;;;;;4.73;85.19;101825.94;5033176;28;20026;-74
2020/12/22 03:19:38;;;;;;;22.70;11.80;;;;;;;4.77;84.71;101824.53;5033292;28;20060;-74
2020/12/22 03:22:07;;;;;;;21.30;12.02;;;;;;;4.85;84.79;101828.63;5032926;28;20030;-71
2020/12/22 03:24:32;;;;;;;14.25;9.57;;;;;;;4.97;84.15;101827.09;4991031;28;20046;-71
2020/12/22 03:26:58;;;;;;;47.30;19.38;;;;;;;4.76;83.54;101790.41;4990923;28;20096;-75
2020/12/22 03:29:23;;;;;;;19.77;11.35;;;;;;;4.86;83.84;101839.00;4991059;28;20042;-73
2020/12/22 03:31:49;;;;;;;18.65;11.48;;;;;;;4.75;84.61;101839.78;4991090;28;20493;-76
2020/12/22 03:34:14;;;;;;;19.65;12.70;;;;;;;4.72;84.80;101825.84;4990934;28;20046;-74
2020/12/22 03:36:40;;;;;;;20.33;12.68;;;;;;;4.71;84.78;101830.06;4990693;28;20477;-72
2020/12/22 03:39:05;;;;;;;20.38;13.10;;;;;;;4.66;85.02;101824.56;4990722;28;20054;-75
2020/12/22 03:41:31;;;;;;;18.13;10.82;;;;;;;4.77;84.77;101830.56;4990782;28;20027;-73
2020/12/22 03:43:56;;;;;;;22.17;13.15;;;;;;;4.62;84.49;101790.91;4990386;28;20038;-74
2020/12/22 03:46:23;;;;;;;38.70;16.00;;;;;;;4.89;84.11;101833.22;4991118;28;20034;-77
2020/12/22 03:48:48;;;;;;;20.40;11.35;;;;;;;4.83;84.35;101818.25;4990743;28;20505;-72
2020/12/22 03:51:14;;;;;;;17.55;10.25;;;;;;;4.84;84.15;101837.06;4990442;28;20044;-74
2020/12/22 03:53:39;;;;;;;17.80;10.40;;;;;;;4.66;84.29;101800.63;4990918;28;20046;-73
2020/12/22 03:56:06;;;;;;;16.02;10.27;;;;;;;4.62;85.26;101847.19;5021140;28;20049;-73
2020/12/22 03:58:32;;;;;;;18.05;10.68;;;;;;;4.56;85.37;101832.25;5032403;28;20483;-73
2020/12/22 04:00:57;;;;;;;18.40;10.73;;;;;;;4.61;85.54;101833.53;5032319;28;20065;-74
2020/12/22 04:03:25;;;;;;;26.40;15.15;;;;;;;4.57;85.81;101830.56;5032088;28;20492;-73
2020/12/22 04:05:50;;;;;;;21.83;16.58;;;;;;;4.56;85.83;101839.00;5031245;28;20396;-73
2020/12/22 04:08:16;;;;;;;17.77;12.05;;;;;;;4.43;86.40;101840.53;5032217;28;20029;-73
2020/12/22 04:10:41;;;;;;;19.75;12.82;;;;;;;4.45;86.71;101844.13;5014365;28;20035;-71
2020/12/22 04:13:06;;;;;;;17.00;11.20;;;;;;;4.42;86.56;101843.84;5032106;28;20037;-73
2020/12/22 04:15:32;;;;;;;19.38;12.73;;;;;;;4.14;87.07;101820.22;5032103;28;20072;-74
2020/12/22 04:17:57;;;;;;;20.45;12.25;;;;;;;4.37;87.17;101855.38;5031991;28;20420;-73
2020/12/22 04:20:23;;;;;;;22.80;12.93;;;;;;;4.09;87.61;101826.56;5014143;28;20052;-73
2020/12/22 04:22:48;;;;;;;18.85;10.88;;;;;;;4.20;88.18;101852.28;5031797;28;20439;-74
2020/12/22 04:25:14;;;;;;;20.25;11.05;;;;;;;4.17;88.06;101857.13;5031874;28;20073;-70
2020/12/22 04:27:39;;;;;;;24.23;15.68;;;;;;;4.16;87.93;101849.34;5031961;28;20087;-73
2020/12/22 04:30:04;;;;;;;18.90;12.77;;;;;;;4.26;87.65;101848.47;5031549;28;20037;-73
2020/12/22 04:32:30;;;;;;;23.25;13.90;;;;;;;4.31;87.10;101848.09;5029178;28;20132;-74
2020/12/22 04:34:56;;;;;;;24.08;13.60;;;;;;;4.34;86.67;101843.22;5029246;28;20041;-73
2020/12/22 04:37:21;;;;;;;19.85;12.20;;;;;;;4.28;86.54;101822.25;5028960;28;20506;-75
2020/12/22 04:39:47;;;;;;;22.75;14.13;;;;;;;4.39;86.21;101841.06;5012479;28;20045;-74
2020/12/22 04:42:13;;;;;;;24.77;14.13;;;;;;;4.45;86.02;101845.78;5012502;28;20128;-71
2020/12/22 04:44:40;;;;;;;36.97;19.98;;;;;;;4.51;85.68;101841.19;5029101;28;20112;-74
2020/12/22 04:47:08;;;;;;;64.15;28.27;;;;;;;4.35;85.64;101800.66;5028989;28;20559;-75
2020/12/22 04:49:36;;;;;;;49.53;22.35;;;;;;;4.66;85.20;101837.34;5029042;28;20458;-73
2020/12/22 04:52:02;;;;;;;51.83;23.35;;;;;;;4.67;84.90;101844.25;5012426;28;20041;-73
2020/12/22 04:54:28;;;;;;;25.23;14.93;;;;;;;4.40;85.15;101806.16;5011609;28;20044;-73
2020/12/22 04:56:54;;;;;;;25.48;15.00;;;;;;;4.57;85.20;101834.00;5009219;28;20069;-73
2020/12/22 04:59:20;;;;;;;24.08;13.25;;;;;;;4.65;85.16;101842.34;5009218;28;20475;-74
2020/12/22 05:01:47;;;;;;;24.55;13.27;;;;;;;4.63;85.15;101842.19;4992527;28;20030;-71
2020/12/22 05:04:13;;;;;;;17.58;11.25;;;;;;;4.66;84.74;101839.91;5010877;28;20045;-75
2020/12/22 05:06:39;;;;;;;20.38;12.10;;;;;;;4.64;84.78;101844.00;5019408;28;20522;-73
2020/12/22 05:09:05;;;;;;;39.03;22.60;;;;;;;4.63;85.40;101844.75;5041119;28;20025;-72
2020/12/22 05:11:34;;;;;;;20.77;12.35;;;;;;;4.65;85.00;101838.13;5031433;28;20062;-74
2020/12/22 05:13:59;;;;;;;29.55;16.90;;;;;;;4.58;85.39;101846.03;5011756;28;20026;-73
2020/12/22 05:16:26;;;;;;;48.40;24.10;;;;;;;4.43;85.63;101839.66;5013736;28;20037;-73
2020/12/22 05:18:56;;;;;;;29.40;18.17;;;;;;;4.41;85.67;101849.75;5022654;28;20083;-71
2020/12/22 05:21:22;;;;;;;21.85;13.18;;;;;;;4.45;85.84;101856.00;5055289;28;20036;-75
2020/12/22 05:23:50;;;;;;;21.80;11.63;;;;;;;4.40;86.33;101844.50;5054967;28;20036;-73
2020/12/22 05:26:22;;;;;;;20.70;13.52;;;;;;;4.34;86.59;101843.22;5054741;28;20037;-73
2020/12/22 05:28:49;;;;;;;22.92;14.35;;;;;;;4.44;86.56;101854.25;5055179;28;20036;-73
2020/12/22 05:31:15;;;;;;;19.92;13.93;;;;;;;4.31;86.20;101825.09;5022232;28;20174;-74
2020/12/22 05:33:44;;;;;;;38.78;22.20;;;;;;;4.50;86.24;101850.53;5035345;28;20033;-72
2020/12/22 05:36:10;;;;;;;30.63;14.50;;;;;;;4.52;85.83;101837.84;5035244;28;20575;-74
2020/12/22 05:38:37;;;;;;;26.58;13.55;;;;;;;4.51;85.77;101830.94;5017022;28;20192;-73
2020/12/22 05:41:06;;;;;;;20.50;13.80;;;;;;;4.50;86.13;101839.41;5034842;28;20045;-74
2020/12/22 05:43:45;;;;;;;21.38;13.13;;;;;;;4.53;85.97;101843.09;5035141;28;20029;-73
2020/12/22 05:46:10;;;;;;;19.70;11.52;;;;;;;4.43;86.11;101839.66;5034806;28;20029;-74
2020/12/22 05:48:36;;;;;;;33.53;18.10;;;;;;;4.45;86.21;101841.56;5034764;28;20025;-71
2020/12/22 05:51:06;;;;;;;42.60;26.25;;;;;;;4.50;86.28;101858.19;5035135;28;20029;-73
2020/12/22 05:53:32;;;;;;;49.00;29.58;;;;;;;4.55;85.83;101856.03;5034619;28;20034;-71
2020/12/22 05:56:19;;;;;;;42.83;24.98;;;;;;;4.58;85.60;101847.72;5034670;28;20034;-73
2020/12/22 05:58:51;;;;;;;22.90;13.88;;;;;;;4.59;85.49;101849.50;5034629;28;20029;-72
2020/12/22 06:01:29;;;;;;;22.30;14.02;;;;;;;4.61;85.18;101850.50;5034694;28;20436;-73
2020/12/22 06:03:56;;;;;;;23.55;14.55;;;;;;;4.51;84.93;101841.19;5034512;28;20030;-73
2020/12/22 06:06:25;;;;;;;23.50;12.38;;;;;;;4.53;85.41;101850.75;5034625;28;20025;-71
2020/12/22 06:08:54;;;;;;;32.45;17.08;;;;;;;4.63;85.39;101851.56;5033934;28;20064;-73
2020/12/22 06:11:19;;;;;;;33.83;16.52;;;;;;;4.64;85.30;101856.78;5034356;28;20108;-73
2020/12/22 06:13:49;;;;;;;26.48;15.18;;;;;;;4.63;85.14;101857.53;5016266;28;20176;-71
2020/12/22 06:16:20;;;;;;;21.80;13.15;;;;;;;4.60;85.13;101853.84;5034407;28;20498;-74
2020/12/22 06:18:47;;;;;;;19.88;13.80;;;;;;;4.57;85.29;101854.47;5034571;28;20029;-73
2020/12/22 06:21:20;;;;;;;23.45;15.77;;;;;;;4.48;85.17;101852.03;5034197;28;20400;-74
2020/12/22 06:23:48;;;;;;;20.38;13.95;;;;;;;4.53;85.58;101862.66;5034092;28;20060;-73
2020/12/22 06:26:13;;;;;;;22.83;16.38;;;;;;;4.52;85.69;101863.44;5032803;28;20063;-74
2020/12/22 06:28:40;;;;;;;46.55;41.72;;;;;;;4.44;85.23;101831.22;5033489;28;20025;-73
2020/12/22 06:31:19;;;;;;;25.10;14.15;;;;;;;4.58;84.94;101865.63;5034294;28;20036;-74
2020/12/22 06:33:45;;;;;;;22.80;14.32;;;;;;;4.53;85.12;101858.44;5033965;28;20026;-73
2020/12/22 06:36:17;;;;;;;28.08;16.50;;;;;;;4.55;85.61;101848.34;5032889;28;20035;-74
2020/12/22 06:38:45;;;;;;;27.35;15.43;;;;;;;4.55;85.53;101863.69;5033859;28;20053;-73
2020/12/22 06:41:10;;;;;;;30.55;16.15;;;;;;;4.38;85.62;101846.94;5033384;28;20030;-73
2020/12/22 06:43:43;;;;;;;33.30;17.30;;;;;;;4.54;85.88;101862.78;5033753;28;20452;-73
2020/12/22 06:46:33;;;;;;;27.90;15.20;;;;;;;4.46;86.17;101865.47;5033980;28;20030;-73
2020/12/22 06:49:02;;;;;;;26.83;15.35;;;;;;;4.41;86.49;101860.00;5015834;28;20416;-74
2020/12/22 06:51:31;;;;;;;23.00;14.23;;;;;;;4.29;86.25;101826.59;5033309;28;20518;-74
2020/12/22 06:54:04;;;;;;;23.17;15.45;;;;;;;4.38;86.32;101844.38;5033722;28;20475;-74
2020/12/22 06:56:50;;;;;;;23.10;15.10;;;;;;;4.50;86.16;101873.53;5015483;28;20513;-73
2020/12/22 06:59:40;;;;;;;25.35;14.18;;;;;;;4.45;86.88;101879.03;5015886;28;20030;-73
2020/12/22 07:02:28;;;;;;;29.00;14.60;;;;;;;4.45;87.22;101876.47;5033601;28;20161;-73
2020/12/22 07:04:53;;;;;;;29.38;15.35;;;;;;;4.50;86.76;101875.22;5033317;28;20048;-73
2020/12/22 07:07:19;;;;;;;23.55;13.68;;;;;;;4.52;86.65;101864.34;5033536;28;20033;-73
2020/12/22 07:09:44;;;;;;;22.55;13.70;;;;;;;4.31;86.46;101829.28;5033153;28;20029;-73
2020/12/22 07:12:15;;;;;;;32.95;16.65;;;;;;;4.60;86.15;101882.88;5032901;28;20087;-73
2020/12/22 07:14:46;;;;;;;31.50;20.17;;;;;;;4.52;86.43;101877.13;5033332;28;20104;-72
2020/12/22 07:17:17;;;;;;;21.73;14.32;;;;;;;4.56;86.33;101877.38;5033351;28;20457;-73
2020/12/22 07:19:46;;;;;;;24.20;15.93;;;;;;;4.60;86.13;101884.53;5032788;28;20502;-73
2020/12/22 07:22:14;;;;;;;23.77;14.23;;;;;;;4.49;86.55;101881.09;5015328;28;20037;-73
2020/12/22 07:24:39;;;;;;;23.58;13.73;;;;;;;4.55;86.25;101873.94;5033077;28;20040;-73
2020/12/22 07:27:07;;;;;;;22.55;13.13;;;;;;;4.64;86.28;101881.47;5032910;28;20407;-71
2020/12/22 07:29:35;;;;;;;27.75;13.77;;;;;;;4.68;85.16;101871.59;5033438;28;20036;-73
2020/12/22 07:32:01;;;;;;;28.08;13.40;;;;;;;4.68;84.82;101871.59;5033005;28;20033;-72
2020/12/22 07:34:27;;;;;;;29.05;15.20;;;;;;;4.70;84.82;101870.09;5015036;28;20037;-70
2020/12/22 07:37:03;;;;;;;30.15;14.68;;;;;;;4.79;84.48;101875.06;5031354;28;20391;-73
2020/12/22 07:39:31;;;;;;;17.92;11.25;;;;;;;4.88;84.04;101871.50;5021365;28;20053;-73
2020/12/22 07:41:57;;;;;;;20.55;12.10;;;;;;;4.92;84.18;101859.09;5032557;28;20025;-71
2020/12/22 07:44:23;;;;;;;21.48;10.82;;;;;;;5.06;83.31;101859.28;5032568;28;20095;-75
2020/12/22 07:46:53;;;;;;;16.70;10.65;;;;;;;5.17;82.00;101872.22;5032539;28;20036;-73
2020/12/22 07:49:19;;;;;;;23.25;15.13;;;;;;;5.13;82.09;101879.50;5032439;28;20026;-73
2020/12/22 07:51:46;;;;;;;16.60;10.80;;;;;;;5.21;82.07;101875.00;5032450;28;20029;-73
2020/12/22 07:54:13;;;;;;;24.23;19.58;;;;;;;5.33;81.86;101863.19;5014155;28;20451;-73
2020/12/22 07:56:41;;;;;;;16.60;11.82;;;;;;;5.48;81.16;101871.22;5031899;28;20377;-74
2020/12/22 07:59:08;;;;;;;17.15;10.98;;;;;;;5.54;80.75;101866.59;5025450;28;20148;-75
2020/12/22 08:01:39;;;;;;;18.88;10.45;;;;;;;5.66;80.46;101874.38;5025699;28;20465;-76
2020/12/22 08:04:18;;;;;;;20.38;13.63;;;;;;;5.73;80.55;101871.53;5026494;28;20084;-74
2020/12/22 08:07:00;;;;;;;15.82;9.88;;;;;;;5.56;79.88;101842.00;5000014;28;20033;-76
2020/12/22 08:09:30;;;;;;;19.67;12.48;;;;;;;5.75;80.37;101867.41;5029492;28;20116;-78
2020/12/22 08:12:00;;;;;;;26.23;16.33;;;;;;;5.74;79.74;101869.84;5013657;28;20506;-76
2020/12/22 08:14:28;;;;;;;18.65;12.90;;;;;;;5.81;80.41;101872.13;5029397;28;20049;-76
2020/12/22 08:16:57;;;;;;;27.20;17.20;;;;;;;5.92;80.07;101868.72;5031224;28;20083;-75
2020/12/22 08:19:23;;;;;;;17.98;14.18;;;;;;;5.94;79.96;101858.59;5011055;28;20108;-75
2020/12/22 08:21:53;;;;;;;17.40;12.00;;;;;;;6.04;79.27;101844.84;5013216;28;20113;-72
2020/12/22 08:24:19;;;;;;;15.73;10.95;;;;;;;6.05;78.20;101854.34;5020749;28;20069;-75
2020/12/22 08:26:48;;;;;;;16.88;11.85;;;;;;;6.05;78.17;101860.34;5025214;28;20459;-74
2020/12/22 08:29:15;;;;;;;19.70;13.10;;;;;;;6.07;78.57;101852.78;5004957;28;20041;-75
2020/12/22 08:31:42;;;;;;;15.35;10.02;;;;;;;6.08;77.75;101850.34;5026327;28;20025;-74
2020/12/22 08:34:09;;;;;;;16.75;11.15;;;;;;;5.99;77.32;101850.53;5025028;28;20025;-74
2020/12/22 08:36:35;;;;;;;16.10;9.57;;;;;;;5.63;76.83;101782.78;5025321;28;20058;-74
2020/12/22 08:39:13;;;;;;;16.38;10.25;;;;;;;6.20;76.76;101845.25;5015347;28;20643;-74
2020/12/22 08:41:43;;;;;;;25.30;10.50;;;;;;;6.14;76.49;101838.00;5027828;28;20034;-75
2020/12/22 08:44:11;;;;;;;14.90;9.68;;;;;;;6.26;75.70;101835.47;5017488;28;20038;-73
2020/12/22 08:46:40;;;;;;;21.63;10.10;;;;;;;6.33;75.16;101826.59;5011092;28;20109;-74
2020/12/22 08:49:31;;;;;;;19.35;10.73;;;;;;;6.45;74.99;101822.34;5025114;28;20450;-74
2020/12/22 08:52:11;;;;;;;15.85;10.60;;;;;;;6.37;75.14;101822.56;5030329;28;20036;-74
2020/12/22 08:54:37;;;;;;;;;;;;;;;6.50;75.53;101822.72;5025487;28;20395;-74
2020/12/22 08:57:20;;;;;;;20.77;12.10;;;;;;;6.59;74.77;101800.31;5026010;28;19916;-74
2020/12/22 08:59:46;;;;;;;25.90;14.25;;;;;;;6.70;73.64;101808.81;5013127;28;20064;-75
2020/12/22 09:02:31;;;;;;;22.35;13.18;;;;;;;6.67;73.45;101811.16;5027457;28;20034;-75
2020/12/22 09:04:58;;;;;;;18.63;12.90;;;;;;;6.58;74.06;101808.81;5025272;28;20025;-75
2020/12/22 09:07:25;;;;;;;22.60;12.35;;;;;;;6.15;73.50;101777.34;5021593;28;20033;-75
2020/12/22 09:09:51;;;;;;;19.80;11.90;;;;;;;6.25;74.36;101796.88;5030073;28;20025;-75
2020/12/22 09:12:17;;;;;;;20.98;13.25;;;;;;;5.99;74.63;101757.34;5030224;28;20103;-72
2020/12/22 09:14:48;;;;;;;17.38;11.30;;;;;;;6.38;74.79;101793.56;5030928;28;20036;-74
2020/12/22 09:17:26;;;;;;;22.13;12.52;;;;;;;6.42;73.34;101788.78;4998421;28;20428;-74
2020/12/22 09:19:52;;;;;;;21.50;13.05;;;;;;;6.23;73.67;101762.53;4996426;28;20516;-73
2020/12/22 09:22:26;;;;;;;23.45;12.65;;;;;;;6.52;72.74;101780.13;4998386;28;20045;-71
2020/12/22 09:24:52;;;;;;;21.05;13.15;;;;;;;6.72;72.56;101778.16;4996465;28;20046;-76
2020/12/22 09:27:30;;;;;;;57.45;31.67;;;;;;;6.85;72.63;101777.34;4998514;28;20042;-76
2020/12/22 09:29:56;;;;;;;23.55;16.23;;;;;;;6.96;73.62;101759.38;4997535;28;20421;-76
2020/12/22 09:32:23;;;;;;;24.25;16.52;;;;;;;7.12;72.66;101773.34;4997809;28;20148;-74
2020/12/22 09:34:49;;;;;;;21.83;13.25;;;;;;;6.94;70.94;101732.72;4995422;28;20042;-71
2020/12/22 09:37:15;;;;;;;22.00;12.88;;;;;;;7.24;70.68;101757.88;4998648;28;20045;-72
2020/12/22 09:39:40;;;;;;;18.85;12.35;;;;;;;7.31;71.19;101762.69;4999198;28;20109;-74
2020/12/22 09:42:06;;;;;;;19.92;12.88;;;;;;;7.44;70.21;101755.06;4997473;28;20045;-75
2020/12/22 09:44:32;;;;;;;39.30;20.85;;;;;;;7.36;70.91;101752.75;4999098;28;20034;-77
2020/12/22 09:46:58;;;;;;;20.58;13.48;;;;;;;7.33;68.79;101743.16;4998696;28;20037;-74
2020/12/22 09:49:24;;;;;;;17.55;12.18;;;;;;;7.18;69.03;101747.19;4997385;28;20132;-73
2020/12/22 09:51:50;;;;;;;20.48;10.45;;;;;;;7.05;68.88;101722.31;4999379;28;20029;-73
2020/12/22 09:54:16;;;;;;;14.73;10.48;;;;;;;7.15;69.37;101747.84;4986187;28;20090;-73
2020/12/22 09:56:42;;;;;;;16.80;11.57;;;;;;;6.98;70.57;101738.97;5030120;28;20535;-75
2020/12/22 09:59:08;;;;;;;16.52;10.80;;;;;;;6.86;70.11;101738.94;5009758;28;20022;-74
2020/12/22 10:01:33;;;;;;;14.63;10.70;;;;;;;6.88;69.87;101731.34;5030204;28;20105;-75
2020/12/22 10:03:59;;;;;;;16.13;10.70;;;;;;;7.01;69.84;101743.44;5038306;28;20496;-71
2020/12/22 10:06:26;;;;;;;17.35;11.88;;;;;;;7.07;69.41;101733.59;5034137;28;20029;-73
2020/12/22 10:08:53;;;;;;;17.08;11.18;;;;;;;6.95;68.72;101703.69;5033775;28;20025;-74
2020/12/22 10:11:20;;;;;;;16.40;10.75;;;;;;;7.19;68.57;101728.41;5015740;28;20464;-74
2020/12/22 10:13:46;;;;;;;24.58;19.42;;;;;;;7.26;69.20;101723.84;5015994;28;20034;-73
2020/12/22 10:16:14;;;;;;;20.20;11.00;;;;;;;7.17;67.88;101725.75;5033703;28;20030;-74
2020/12/22 10:18:40;;;;;;;15.88;11.07;;;;;;;7.04;69.01;101725.66;5034092;28;20029;-71
2020/12/22 10:21:10;;;;;;;15.68;10.70;;;;;;;6.84;69.37;101725.13;5034135;28;20064;-70
2020/12/22 10:23:37;;;;;;;13.77;9.90;;;;;;;6.61;69.96;101721.75;5034356;28;20033;-73
2020/12/22 10:26:04;;;;;;;16.17;11.43;;;;;;;6.68;69.27;101728.25;5015925;28;20037;-73
2020/12/22 10:28:31;;;;;;;14.93;10.20;;;;;;;6.51;69.46;101714.19;5033901;28;20030;-73
2020/12/22 10:30:56;;;;;;;18.08;13.70;;;;;;;6.66;70.07;101716.09;5034411;28;20105;-73
2020/12/22 10:33:23;;;;;;;13.27;9.00;;;;;;;6.61;68.80;101716.63;5034054;28;20116;-73
2020/12/22 10:35:48;;;;;;;18.55;10.95;;;;;;;6.78;68.13;101720.44;5142875;23;20109;-73
2020/12/22 10:38:14;;;;;;;15.63;9.85;;;;;;;6.83;67.91;101715.66;5007435;28;20034;-73
2020/12/22 10:40:39;;;;;;;13.90;9.45;;;;;;;6.84;67.90;101714.88;5013750;28;20026;-73
2020/12/22 10:43:05;;;;;;;15.05;9.90;;;;;;;7.02;67.45;101704.13;5014194;28;20075;-74
2020/12/22 10:45:30;;;;;;;14.98;10.27;;;;;;;7.09;67.50;101706.31;5013713;28;20076;-73
2020/12/22 10:47:56;;;;;;;17.42;10.30;;;;;;;7.03;67.41;101706.81;5013814;28;20022;-73
2020/12/22 10:50:22;;;;;;;12.48;9.18;;;;;;;6.90;66.01;101666.53;5014079;28;20030;-71
2020/12/22 10:52:48;;;;;;;15.73;9.10;;;;;;;7.20;66.26;101707.09;5013677;28;20030;-73
2020/12/22 10:55:14;;;;;;;13.55;9.18;;;;;;;7.24;65.64;101694.59;5011807;28;20413;-72
2020/12/22 10:57:39;;;;;;;14.57;9.00;;;;;;;7.26;65.00;101682.75;5012508;28;20030;-72
2020/12/22 11:00:06;;;;;;;13.00;8.88;;;;;;;7.29;65.54;101685.53;5012685;28;20108;-76
2020/12/22 11:02:37;;;;;;;17.38;12.23;;;;;;;7.34;67.44;101690.06;5011505;28;21415;-73
2020/12/22 11:05:04;;;;;;;17.50;10.65;;;;;;;7.02;68.92;101679.34;5012174;28;20068;-72
2020/12/22 11:07:51;;;;;;;14.98;11.00;;;;;;;7.10;68.33;101685.00;5012611;28;20037;-72
2020/12/22 11:10:17;;;;;;;15.07;10.43;;;;;;;7.10;69.15;101682.44;5012022;28;20021;-73
2020/12/22 11:12:42;;;;;;;23.92;17.23;;;;;;;6.91;71.04;101646.88;5012452;28;20029;-70
2020/12/22 11:15:08;;;;;;;20.38;13.13;;;;;;;7.08;70.93;101687.47;5012173;28;20026;-70
2020/12/22 11:17:34;;;;;;;20.38;12.60;;;;;;;7.09;71.32;101681.56;5012274;28;20026;-67
2020/12/22 11:20:00;;;;;;;21.23;13.45;;;;;;;7.35;69.83;101673.88;5012915;28;20064;-70
2020/12/22 11:22:25;;;;;;;24.45;16.58;;;;;;;7.44;70.27;101672.84;5012865;28;20105;-69